Flight Track Log - Related Links

Times and Time Zones

All times are in EDT time to prevent confusion due to time zone crossing. See the AMF9313 flight status page for this flight to view local times or setup timezone preferences in your user account.

Time Position Orientation Groundspeed Altitude Reporting Facility
EDT Latitude Longitude Course Direction KTS MPH feet Rate Location/Type
Wed 10:08:47 PM 38.1333 -85.8000 233° Southwest 166 191 5,000  Level Louisville TRACON
Wed 10:10:05 PM 38.1167 -85.8681 253° West 158 182 7,900 2,201 Climbing Indianapolis Center
Wed 10:11:06 PM 38.0981 -85.9217 246° West 162 186 10,100 1,082 Climbing Indianapolis Center
Wed 10:12:07 PM 38.0508 -85.9722 220° Southwest 212 244 10,100 -49 Level Indianapolis Center
Wed 10:13:00 PM 37.8477 -85.8577 190° South  Level Estimated
Wed 10:13:08 PM 38.0083 -86.0311 228° Southwest 222 255 10,000  Level Indianapolis Center
Wed 10:14:00 PM 37.8136 -85.9150 233° Southwest  Level FlightAware
Wed 10:14:09 PM 37.9761 -86.0994 239° Southwest 225 259 10,000  Level Indianapolis Center
Wed 10:15:10 PM 37.9381 -86.1644 233° Southwest 227 261 10,000  Level Indianapolis Center
Wed 10:16:11 PM 37.8992 -86.2267 232° Southwest 226 260 10,000  Level Indianapolis Center
Wed 10:17:12 PM 37.8392 -86.2561 201° Southwest 230 265 10,000  Level Indianapolis Center
Wed 10:18:13 PM 37.7744 -86.2781 195° South 237 273 10,000  Level Indianapolis Center
Wed 10:19:14 PM 37.7086 -86.2942 191° South 239 275 10,000  Level Indianapolis Center
Wed 10:20:16 PM 37.6433 -86.3078 189° South 237 273 10,000  Level Indianapolis Center
Wed 10:21:17 PM 37.5786 -86.3269 193° South 237 273 10,000  Level Indianapolis Center
Wed 10:22:18 PM 37.5033 -86.3458 191° South 234 269 10,000  Level Indianapolis Center
Wed 10:23:19 PM 37.4383 -86.3583 189° South 234 269 10,000  Level Indianapolis Center
Wed 10:24:20 PM 37.3739 -86.3772 193° South 234 269 10,000  Level Indianapolis Center
Wed 10:25:21 PM 37.3083 -86.3942 192° South 237 273 10,000  Level Indianapolis Center
Wed 10:26:22 PM 37.2431 -86.4106 191° South 238 274 10,000 -246 Level Indianapolis Center
Wed 10:27:23 PM 37.1772 -86.4225 188° South 238 274 9,500 -689 Descending Indianapolis Center
Wed 10:28:24 PM 37.1036 -86.4250 182° South 257 296 8,600 -689 Descending Indianapolis Center
Wed 10:29:25 PM 37.0336 -86.4311 184° South 253 291 8,100 -246 Descending Indianapolis Center
Wed 10:30:26 PM 36.9664 -86.4381 185° South 241 277 8,100  Level Indianapolis Center
Wed 10:31:27 PM 36.9028 -86.4475 187° South 231 266 8,100  Level Indianapolis Center
Wed 10:32:29 PM 36.8369 -86.4517 183° South 233 268 8,100  Level Indianapolis Center
Wed 10:33:30 PM 36.7703 -86.4561 183° South 236 272 8,100  Level Indianapolis Center
Wed 10:34:31 PM 36.7050 -86.4531 178° South 234 269 8,100 -97 Level Indianapolis Center
Wed 10:35:34 PM 36.6369 -86.4497 178° South 235 270 7,900 -585 Descending Memphis Center
Wed 10:36:34 PM 36.5661 -86.4506 181° South 235 270 6,900 -1,000 Descending Memphis Center
Wed 10:37:34 PM 36.4950 -86.4489 179° South 250 288 5,900 -950 Descending Memphis Center
Wed 10:38:34 PM 36.4264 -86.4469 179° South 255 293 5,000 -500 Descending Memphis Center
Wed 10:39:34 PM 36.3575 -86.4453 179° South 248 285 4,900  Descending Memphis Center
Wed 10:40:34 PM 36.2886 -86.4433 179° South 242 278 5,000  Climbing Memphis Center
Wed 10:41:34 PM 36.2236 -86.4361 175° South 237 273 4,900 -50 Descending Memphis Center
Wed 10:42:34 PM 36.1611 -86.4339 178° South 237 273 4,900 -700 Level Memphis Center
Wed 10:43:34 PM 36.1003 -86.4267 175° South 232 267 3,500 -950 Descending Memphis Center
Wed 10:44:34 PM 36.0436 -86.4089 166° South 222 255 3,000 -250 Descending Memphis Center
Wed 10:45:34 PM 35.9947 -86.3856 159° South 203 234 3,000  Level Memphis Center
Wed 10:46:34 PM 35.9483 -86.3622 158° South 188 216 3,000  Level Memphis Center
Wed 10:48:09 PM 35.8833 -86.3667 183° South 179 206 3,000 -186 Level Nashville TRACON
Wed 10:49:15 PM 35.9167 -86.4167 309° West 177 204 2,500 -619 Descending Nashville TRACON
Wed 10:50:15 PM 35.9500 -86.4500 321° Northwest 140 161 1,700 -700 Descending Nashville TRACON
Wed 10:51:15 PM 35.9833 -86.4833 321° Northwest 120 138 1,100 -600 Descending Nashville TRACON

Login

Don't have an account? Register now (free) for customized features, flight alerts, and more!